»·PEaware :: N921VN KGCN-KHII

N921VN :: KGCN-KHII

FLIGHT INFORMATION

Flight Status: Arrived
Operator: Privately registered:
United States
More flights under this callsign
Pilot: Kevin M. (7)
Aircraft: Unknown
(SF50)
More flights by this aircraft type
Origin: KGCN Grand Canyon Natl Park
United States
Destination: KHII Lake Havasu City
United States
More flights between these airports :: More routes between these airports
Route:
File this flight plan on PilotEdge
Remarks: Dead reckoning the Alphabet challenge leg 7
Altitude:
(Current/Filed)
16,500ft
Speed:
(Current/Filed)
250kts
Departed: 30-Oct-19 12:46 PM
Arrived: 30-Oct-19 01:20 PM
Distance/Time
Traveled:
136nm/0:34
Distance/Time
To Go:
Arrived

Flight Plot

Page will automatically refresh every two minutes.


Map Options




Map Legend


Flown Route
Filed Route
Departure Airport
Arrival Airport
Navaid (VOR, NDB)
Fix

Horizontal Profiles

Position Reports

Time Latitude Longitude Heading Altitude Ground
Speed
30-Oct-19 12:35 35.959689 -112.136303 311 6618ft 0kts
30-Oct-19 12:36 35.959689 -112.136303 311 6618ft 0kts
30-Oct-19 12:37 35.960426 -112.136074 44 6615ft 1kts
30-Oct-19 12:38 35.960478 -112.136012 44 6615ft 0kts
30-Oct-19 12:39 35.960528 -112.135948 47 6615ft 0kts
30-Oct-19 12:40 35.958771 -112.138234 218 6609ft 10kts
30-Oct-19 12:41 35.952960 -112.144563 222 6584ft 29kts
30-Oct-19 12:42 35.946270 -112.151615 217 6553ft 36kts
30-Oct-19 12:44 35.942493 -112.155994 333 6540ft 0kts
30-Oct-19 12:45 35.942622 -112.156158 308 6539ft 7kts
30-Oct-19 12:46 35.954058 -112.144608 46 6991ft 120kts
30-Oct-19 12:47 35.962697 -112.187223 255 9472ft 170kts
30-Oct-19 12:48 35.918424 -112.232678 217 10729ft 249kts
30-Oct-19 12:49 35.858892 -112.287607 217 11866ft 280kts
30-Oct-19 12:50 35.795180 -112.345711 217 12969ft 289kts
30-Oct-19 12:51 35.728987 -112.405534 220 13502ft 308kts
30-Oct-19 12:52 35.653418 -112.460890 210 13492ft 322kts
30-Oct-19 12:53 35.575045 -112.515731 210 13451ft 325kts
30-Oct-19 12:54 35.496203 -112.570894 210 13418ft 326kts
30-Oct-19 12:55 35.436320 -112.647865 241 13421ft 320kts
30-Oct-19 12:56 35.389829 -112.743490 241 12861ft 330kts
30-Oct-19 12:57 35.354272 -112.846792 251 12416ft 325kts
30-Oct-19 12:58 35.298675 -112.932435 226 12419ft 324kts
30-Oct-19 12:59 35.235162 -113.010467 226 12424ft 323kts
30-Oct-19 13:00 35.171824 -113.088020 226 12439ft 323kts
30-Oct-19 13:01 35.108423 -113.165576 226 12463ft 323kts
30-Oct-19 13:02 35.045038 -113.243058 226 12487ft 323kts
30-Oct-19 13:02 34.992081 -113.307598 226 12502ft 322kts
30-Oct-19 13:04 34.918498 -113.396827 226 12502ft 318kts
30-Oct-19 13:05 34.855773 -113.472967 226 12498ft 314kts
30-Oct-19 13:05 34.804533 -113.535452 226 12481ft 314kts
30-Oct-19 13:06 34.743147 -113.611289 226 12481ft 314kts
30-Oct-19 13:08 34.671732 -113.699522 226 12476ft 314kts
30-Oct-19 13:08 34.620610 -113.762688 226 12466ft 314kts
30-Oct-19 13:09 34.559602 -113.838056 226 12455ft 314kts
30-Oct-19 13:10 34.498331 -113.913730 226 12454ft 314kts
30-Oct-19 13:11 34.437175 -113.989240 226 12454ft 314kts
30-Oct-19 13:12 34.376067 -114.064664 226 12454ft 314kts
30-Oct-19 13:13 34.347288 -114.152367 303 12446ft 301kts
30-Oct-19 13:14 34.397634 -114.232631 319 12435ft 299kts
30-Oct-19 13:15 34.452218 -114.274461 324 5886ft 256kts
30-Oct-19 13:16 34.504672 -114.311819 328 2696ft 191kts
30-Oct-19 13:17 34.543585 -114.338653 335 1393ft 121kts
30-Oct-19 13:18 34.562495 -114.352167 325 788ft 47kts
30-Oct-19 13:19 34.567048 -114.357253 300 747ft 0kts
30-Oct-19 13:20 34.567048 -114.357253 300 747ft 0kts
30-Oct-19 13:21 34.567048 -114.357253 300 747ft 0kts
30-Oct-19 13:22 34.567048 -114.357253 300 747ft 0kts
30-Oct-19 13:23 34.567048 -114.357253 300 747ft 0kts
30-Oct-19 13:24 34.567048 -114.357253 300 747ft 0kts
30-Oct-19 13:25 34.567048 -114.357253 300 747ft 0kts
30-Oct-19 13:26 34.567048 -114.357253 300 747ft 0kts
30-Oct-19 13:27 34.566921 -114.356392 118 752ft 27kts

Navigation Log

Ident Type
Flight plan parsing failed, navigation log unavailable